sensor_id;sensor_type;location;lat;lon;timestamp;temperature;humidity
31967;DHT22;18496;52.042;6.812;2023-03-03T00:01:18;7.20;99.90
31967;DHT22;18496;52.042;6.812;2023-03-03T00:03:22;7.20;99.90
31967;DHT22;18496;52.042;6.812;2023-03-03T00:05:26;7.20;99.90
31967;DHT22;18496;52.042;6.812;2023-03-03T00:07:29;7.20;99.90
31967;DHT22;18496;52.042;6.812;2023-03-03T00:09:33;7.10;99.90
31967;DHT22;18496;52.042;6.812;2023-03-03T00:11:36;7.10;99.90
31967;DHT22;18496;52.042;6.812;2023-03-03T00:15:47;7.10;99.90
31967;DHT22;18496;52.042;6.812;2023-03-03T00:17:51;7.10;99.90
31967;DHT22;18496;52.042;6.812;2023-03-03T00:19:55;7.00;99.90
31967;DHT22;18496;52.042;6.812;2023-03-03T00:21:58;7.00;99.90
31967;DHT22;18496;52.042;6.812;2023-03-03T00:24:10;6.90;99.90
31967;DHT22;18496;52.042;6.812;2023-03-03T00:26:20;6.90;99.90
31967;DHT22;18496;52.042;6.812;2023-03-03T00:28:26;6.80;99.90
31967;DHT22;18496;52.042;6.812;2023-03-03T00:30:30;6.80;99.90
31967;DHT22;18496;52.042;6.812;2023-03-03T00:32:43;6.80;99.90
31967;DHT22;18496;52.042;6.812;2023-03-03T00:34:53;6.90;99.90
31967;DHT22;18496;52.042;6.812;2023-03-03T00:36:57;6.80;99.90
31967;DHT22;18496;52.042;6.812;2023-03-03T00:39:18;6.90;99.90
31967;DHT22;18496;52.042;6.812;2023-03-03T00:41:24;6.80;99.90
31967;DHT22;18496;52.042;6.812;2023-03-03T00:43:31;6.80;99.90
31967;DHT22;18496;52.042;6.812;2023-03-03T00:47:43;6.80;99.90
31967;DHT22;18496;52.042;6.812;2023-03-03T00:49:46;6.80;99.90
31967;DHT22;18496;52.042;6.812;2023-03-03T00:51:50;6.80;99.90
31967;DHT22;18496;52.042;6.812;2023-03-03T00:53:54;6.80;99.90
31967;DHT22;18496;52.042;6.812;2023-03-03T00:55:58;6.90;99.90
31967;DHT22;18496;52.042;6.812;2023-03-03T00:58:02;6.90;99.90
31967;DHT22;18496;52.042;6.812;2023-03-03T01:00:11;6.90;99.90
31967;DHT22;18496;52.042;6.812;2023-03-03T01:02:15;6.80;99.90
31967;DHT22;18496;52.042;6.812;2023-03-03T01:04:18;6.80;99.90
31967;DHT22;18496;52.042;6.812;2023-03-03T01:06:22;6.80;99.90
31967;DHT22;18496;52.042;6.812;2023-03-03T01:08:26;6.80;99.90
31967;DHT22;18496;52.042;6.812;2023-03-03T01:10:30;6.80;99.90
31967;DHT22;18496;52.042;6.812;2023-03-03T01:12:35;6.80;99.90
31967;DHT22;18496;52.042;6.812;2023-03-03T01:14:41;6.80;99.90
31967;DHT22;18496;52.042;6.812;2023-03-03T01:16:44;6.80;99.90
31967;DHT22;18496;52.042;6.812;2023-03-03T01:18:48;6.90;99.90
31967;DHT22;18496;52.042;6.812;2023-03-03T01:20:51;6.80;99.90
31967;DHT22;18496;52.042;6.812;2023-03-03T01:22:55;6.70;99.90
31967;DHT22;18496;52.042;6.812;2023-03-03T01:24:59;6.70;99.90
31967;DHT22;18496;52.042;6.812;2023-03-03T01:27:02;6.70;99.90
31967;DHT22;18496;52.042;6.812;2023-03-03T01:29:06;6.70;99.90
31967;DHT22;18496;52.042;6.812;2023-03-03T01:31:09;6.70;99.90
31967;DHT22;18496;52.042;6.812;2023-03-03T01:33:13;6.70;99.90
31967;DHT22;18496;52.042;6.812;2023-03-03T01:35:17;6.70;99.90
31967;DHT22;18496;52.042;6.812;2023-03-03T01:37:21;6.70;99.90
31967;DHT22;18496;52.042;6.812;2023-03-03T01:39:25;6.70;99.90
31967;DHT22;18496;52.042;6.812;2023-03-03T01:41:29;6.70;99.90
31967;DHT22;18496;52.042;6.812;2023-03-03T01:43:41;6.80;99.90
31967;DHT22;18496;52.042;6.812;2023-03-03T01:50:16;6.70;99.90
31967;DHT22;18496;52.042;6.812;2023-03-03T01:52:30;6.70;99.90
31967;DHT22;18496;52.042;6.812;2023-03-03T01:54:37;6.80;99.90
31967;DHT22;18496;52.042;6.812;2023-03-03T01:56:42;6.80;99.90
31967;DHT22;18496;52.042;6.812;2023-03-03T01:59:05;6.80;99.90
31967;DHT22;18496;52.042;6.812;2023-03-03T02:01:16;6.90;99.90
31967;DHT22;18496;52.042;6.812;2023-03-03T02:03:21;6.80;99.90
31967;DHT22;18496;52.042;6.812;2023-03-03T02:05:25;6.80;99.90
31967;DHT22;18496;52.042;6.812;2023-03-03T02:07:30;6.80;99.90
31967;DHT22;18496;52.042;6.812;2023-03-03T02:11:57;6.70;99.90
31967;DHT22;18496;52.042;6.812;2023-03-03T02:14:02;6.60;99.90
31967;DHT22;18496;52.042;6.812;2023-03-03T02:16:06;6.60;99.90
31967;DHT22;18496;52.042;6.812;2023-03-03T02:18:14;6.60;99.90
31967;DHT22;18496;52.042;6.812;2023-03-03T02:22:43;6.60;99.90
31967;DHT22;18496;52.042;6.812;2023-03-03T02:24:50;6.60;99.90
31967;DHT22;18496;52.042;6.812;2023-03-03T02:26:54;6.70;99.90
31967;DHT22;18496;52.042;6.812;2023-03-03T02:28:58;6.70;99.90
31967;DHT22;18496;52.042;6.812;2023-03-03T02:31:02;6.70;99.90
31967;DHT22;18496;52.042;6.812;2023-03-03T02:33:07;6.70;99.90
31967;DHT22;18496;52.042;6.812;2023-03-03T02:35:24;6.70;99.90
31967;DHT22;18496;52.042;6.812;2023-03-03T02:37:28;6.60;99.90
31967;DHT22;18496;52.042;6.812;2023-03-03T02:39:32;6.60;99.90
31967;DHT22;18496;52.042;6.812;2023-03-03T02:45:54;6.60;99.90
31967;DHT22;18496;52.042;6.812;2023-03-03T02:47:57;6.60;99.90
31967;DHT22;18496;52.042;6.812;2023-03-03T02:50:01;6.70;99.90
31967;DHT22;18496;52.042;6.812;2023-03-03T02:52:05;6.70;99.90
31967;DHT22;18496;52.042;6.812;2023-03-03T02:54:11;6.70;99.90
31967;DHT22;18496;52.042;6.812;2023-03-03T02:56:15;6.70;99.90
31967;DHT22;18496;52.042;6.812;2023-03-03T02:58:18;6.80;99.90
31967;DHT22;18496;52.042;6.812;2023-03-03T03:00:22;6.70;99.90
31967;DHT22;18496;52.042;6.812;2023-03-03T03:02:26;6.70;99.90
31967;DHT22;18496;52.042;6.812;2023-03-03T03:04:31;6.70;99.90
31967;DHT22;18496;52.042;6.812;2023-03-03T03:06:35;6.60;99.90
31967;DHT22;18496;52.042;6.812;2023-03-03T03:08:39;6.60;99.90
31967;DHT22;18496;52.042;6.812;2023-03-03T03:10:43;6.60;99.90
31967;DHT22;18496;52.042;6.812;2023-03-03T03:12:47;6.60;99.90
31967;DHT22;18496;52.042;6.812;2023-03-03T03:14:51;6.60;99.90
31967;DHT22;18496;52.042;6.812;2023-03-03T03:16:54;6.50;99.90
31967;DHT22;18496;52.042;6.812;2023-03-03T03:18:58;6.60;99.90
31967;DHT22;18496;52.042;6.812;2023-03-03T03:21:06;6.60;99.90
31967;DHT22;18496;52.042;6.812;2023-03-03T03:23:11;6.60;99.90
31967;DHT22;18496;52.042;6.812;2023-03-03T03:25:14;6.70;99.90
31967;DHT22;18496;52.042;6.812;2023-03-03T03:27:18;6.70;99.90
31967;DHT22;18496;52.042;6.812;2023-03-03T03:29:23;6.60;99.90
31967;DHT22;18496;52.042;6.812;2023-03-03T03:31:27;6.60;99.90
31967;DHT22;18496;52.042;6.812;2023-03-03T03:33:30;6.60;99.90
31967;DHT22;18496;52.042;6.812;2023-03-03T03:35:35;6.60;99.90
31967;DHT22;18496;52.042;6.812;2023-03-03T03:37:38;6.60;99.90
31967;DHT22;18496;52.042;6.812;2023-03-03T03:39:42;6.60;99.90
31967;DHT22;18496;52.042;6.812;2023-03-03T03:41:46;6.60;99.90
31967;DHT22;18496;52.042;6.812;2023-03-03T03:43:49;6.60;99.90
31967;DHT22;18496;52.042;6.812;2023-03-03T03:45:53;6.60;99.90
31967;DHT22;18496;52.042;6.812;2023-03-03T03:47:57;6.60;99.90
31967;DHT22;18496;52.042;6.812;2023-03-03T03:50:01;6.60;99.90
31967;DHT22;18496;52.042;6.812;2023-03-03T03:52:05;6.60;99.90
31967;DHT22;18496;52.042;6.812;2023-03-03T03:54:10;6.60;99.90
31967;DHT22;18496;52.042;6.812;2023-03-03T03:56:14;6.60;99.90
31967;DHT22;18496;52.042;6.812;2023-03-03T03:58:19;6.70;99.90
31967;DHT22;18496;52.042;6.812;2023-03-03T04:00:29;6.70;99.90
31967;DHT22;18496;52.042;6.812;2023-03-03T04:02:36;6.70;99.90
31967;DHT22;18496;52.042;6.812;2023-03-03T04:04:40;6.60;99.90
31967;DHT22;18496;52.042;6.812;2023-03-03T04:06:44;6.60;99.90
31967;DHT22;18496;52.042;6.812;2023-03-03T04:08:48;6.60;99.90
31967;DHT22;18496;52.042;6.812;2023-03-03T04:10:53;6.60;99.90
31967;DHT22;18496;52.042;6.812;2023-03-03T04:12:57;6.60;99.90
31967;DHT22;18496;52.042;6.812;2023-03-03T04:15:01;6.50;99.90
31967;DHT22;18496;52.042;6.812;2023-03-03T04:17:05;6.50;99.90
31967;DHT22;18496;52.042;6.812;2023-03-03T04:19:09;6.50;99.90
31967;DHT22;18496;52.042;6.812;2023-03-03T04:21:14;6.50;99.90
31967;DHT22;18496;52.042;6.812;2023-03-03T04:23:19;6.50;99.90
31967;DHT22;18496;52.042;6.812;2023-03-03T04:25:22;6.60;99.90
31967;DHT22;18496;52.042;6.812;2023-03-03T04:27:28;6.50;99.90
31967;DHT22;18496;52.042;6.812;2023-03-03T04:29:32;6.60;99.90
31967;DHT22;18496;52.042;6.812;2023-03-03T04:31:35;6.60;99.90
31967;DHT22;18496;52.042;6.812;2023-03-03T04:33:40;6.60;99.90
31967;DHT22;18496;52.042;6.812;2023-03-03T04:35:45;6.50;99.90
31967;DHT22;18496;52.042;6.812;2023-03-03T04:37:48;6.50;99.90
31967;DHT22;18496;52.042;6.812;2023-03-03T04:39:53;6.50;99.90
31967;DHT22;18496;52.042;6.812;2023-03-03T04:41:57;6.50;99.90
31967;DHT22;18496;52.042;6.812;2023-03-03T04:44:01;6.40;99.90
31967;DHT22;18496;52.042;6.812;2023-03-03T04:46:04;6.40;99.90
31967;DHT22;18496;52.042;6.812;2023-03-03T04:48:08;6.40;99.90
31967;DHT22;18496;52.042;6.812;2023-03-03T04:50:13;6.30;99.90
31967;DHT22;18496;52.042;6.812;2023-03-03T04:52:17;6.30;99.90
31967;DHT22;18496;52.042;6.812;2023-03-03T04:54:21;6.30;99.90
31967;DHT22;18496;52.042;6.812;2023-03-03T04:56:25;6.30;99.90
31967;DHT22;18496;52.042;6.812;2023-03-03T04:58:29;6.30;99.90
31967;DHT22;18496;52.042;6.812;2023-03-03T05:00:32;6.30;99.90
31967;DHT22;18496;52.042;6.812;2023-03-03T05:02:38;6.30;99.90
31967;DHT22;18496;52.042;6.812;2023-03-03T05:04:42;6.30;99.90
31967;DHT22;18496;52.042;6.812;2023-03-03T05:06:46;6.20;99.90
31967;DHT22;18496;52.042;6.812;2023-03-03T05:08:49;6.20;99.90
31967;DHT22;18496;52.042;6.812;2023-03-03T05:10:53;6.20;99.90
31967;DHT22;18496;52.042;6.812;2023-03-03T05:12:57;6.20;99.90
31967;DHT22;18496;52.042;6.812;2023-03-03T05:15:00;6.30;99.90
31967;DHT22;18496;52.042;6.812;2023-03-03T05:17:04;6.30;99.90
31967;DHT22;18496;52.042;6.812;2023-03-03T05:19:08;6.30;99.90
31967;DHT22;18496;52.042;6.812;2023-03-03T05:21:11;6.40;99.90
31967;DHT22;18496;52.042;6.812;2023-03-03T05:23:15;6.30;99.90
31967;DHT22;18496;52.042;6.812;2023-03-03T05:25:20;6.30;99.90
31967;DHT22;18496;52.042;6.812;2023-03-03T05:27:24;6.30;99.90
31967;DHT22;18496;52.042;6.812;2023-03-03T05:29:28;6.30;99.90
31967;DHT22;18496;52.042;6.812;2023-03-03T05:31:33;6.30;99.90
31967;DHT22;18496;52.042;6.812;2023-03-03T05:33:37;6.40;99.90
31967;DHT22;18496;52.042;6.812;2023-03-03T05:35:40;6.40;99.90
31967;DHT22;18496;52.042;6.812;2023-03-03T05:37:44;6.40;99.90
31967;DHT22;18496;52.042;6.812;2023-03-03T05:39:50;6.40;99.90
31967;DHT22;18496;52.042;6.812;2023-03-03T05:41:53;6.40;99.90
31967;DHT22;18496;52.042;6.812;2023-03-03T05:43:58;6.40;99.90
31967;DHT22;18496;52.042;6.812;2023-03-03T05:46:01;6.40;99.90
31967;DHT22;18496;52.042;6.812;2023-03-03T05:48:05;6.40;99.90
31967;DHT22;18496;52.042;6.812;2023-03-03T05:50:09;6.40;99.90
31967;DHT22;18496;52.042;6.812;2023-03-03T05:52:14;6.40;99.90
31967;DHT22;18496;52.042;6.812;2023-03-03T05:54:18;6.40;99.90
31967;DHT22;18496;52.042;6.812;2023-03-03T05:56:21;6.30;99.90
31967;DHT22;18496;52.042;6.812;2023-03-03T05:58:25;6.30;99.90
31967;DHT22;18496;52.042;6.812;2023-03-03T06:00:29;6.30;99.90
31967;DHT22;18496;52.042;6.812;2023-03-03T06:02:33;6.30;99.90
31967;DHT22;18496;52.042;6.812;2023-03-03T06:04:38;6.30;99.90
31967;DHT22;18496;52.042;6.812;2023-03-03T06:06:42;6.30;99.90
31967;DHT22;18496;52.042;6.812;2023-03-03T06:08:45;6.20;99.90
31967;DHT22;18496;52.042;6.812;2023-03-03T06:10:49;6.20;99.90
31967;DHT22;18496;52.042;6.812;2023-03-03T06:12:53;6.20;99.90
31967;DHT22;18496;52.042;6.812;2023-03-03T06:14:57;6.20;99.90
31967;DHT22;18496;52.042;6.812;2023-03-03T06:17:01;6.20;99.90
31967;DHT22;18496;52.042;6.812;2023-03-03T06:19:04;6.20;99.90
31967;DHT22;18496;52.042;6.812;2023-03-03T06:21:08;6.20;99.90
31967;DHT22;18496;52.042;6.812;2023-03-03T06:23:11;6.20;99.90
31967;DHT22;18496;52.042;6.812;2023-03-03T06:25:15;6.30;99.90
31967;DHT22;18496;52.042;6.812;2023-03-03T06:27:18;6.30;99.90
31967;DHT22;18496;52.042;6.812;2023-03-03T06:29:22;6.20;99.90
31967;DHT22;18496;52.042;6.812;2023-03-03T06:31:26;6.30;99.90
31967;DHT22;18496;52.042;6.812;2023-03-03T06:33:30;6.30;99.90
31967;DHT22;18496;52.042;6.812;2023-03-03T06:35:33;6.30;99.90
31967;DHT22;18496;52.042;6.812;2023-03-03T06:37:37;6.30;99.90
31967;DHT22;18496;52.042;6.812;2023-03-03T06:39:41;6.30;99.90
31967;DHT22;18496;52.042;6.812;2023-03-03T06:41:44;6.30;99.90
31967;DHT22;18496;52.042;6.812;2023-03-03T06:43:48;6.30;99.90
31967;DHT22;18496;52.042;6.812;2023-03-03T06:45:51;6.20;99.90
31967;DHT22;18496;52.042;6.812;2023-03-03T06:47:55;6.30;99.90
31967;DHT22;18496;52.042;6.812;2023-03-03T06:49:58;6.30;99.90
31967;DHT22;18496;52.042;6.812;2023-03-03T06:52:09;6.30;99.90
31967;DHT22;18496;52.042;6.812;2023-03-03T06:54:18;6.30;99.90
31967;DHT22;18496;52.042;6.812;2023-03-03T06:56:25;6.30;99.90
31967;DHT22;18496;52.042;6.812;2023-03-03T06:58:29;6.20;99.90
31967;DHT22;18496;52.042;6.812;2023-03-03T07:00:33;6.20;99.90
31967;DHT22;18496;52.042;6.812;2023-03-03T07:02:37;6.20;99.90
31967;DHT22;18496;52.042;6.812;2023-03-03T07:04:40;6.20;99.90
31967;DHT22;18496;52.042;6.812;2023-03-03T07:06:44;6.30;99.90
31967;DHT22;18496;52.042;6.812;2023-03-03T07:08:48;6.30;99.90
31967;DHT22;18496;52.042;6.812;2023-03-03T07:10:52;6.30;99.90
31967;DHT22;18496;52.042;6.812;2023-03-03T07:13:01;6.30;99.90
31967;DHT22;18496;52.042;6.812;2023-03-03T07:15:16;6.40;99.90
31967;DHT22;18496;52.042;6.812;2023-03-03T07:17:21;6.40;99.90
31967;DHT22;18496;52.042;6.812;2023-03-03T07:19:34;6.40;99.90
31967;DHT22;18496;52.042;6.812;2023-03-03T07:21:38;6.40;99.90
31967;DHT22;18496;52.042;6.812;2023-03-03T07:23:43;6.40;99.90
31967;DHT22;18496;52.042;6.812;2023-03-03T07:25:47;6.40;99.90
31967;DHT22;18496;52.042;6.812;2023-03-03T07:27:52;6.30;99.90
31967;DHT22;18496;52.042;6.812;2023-03-03T07:32:27;6.40;99.90
31967;DHT22;18496;52.042;6.812;2023-03-03T07:34:40;6.40;99.90
31967;DHT22;18496;52.042;6.812;2023-03-03T07:36:46;6.30;99.90
31967;DHT22;18496;52.042;6.812;2023-03-03T07:38:55;6.40;99.90
31967;DHT22;18496;52.042;6.812;2023-03-03T07:41:00;6.30;99.90
31967;DHT22;18496;52.042;6.812;2023-03-03T07:45:22;6.30;99.90
31967;DHT22;18496;52.042;6.812;2023-03-03T07:47:28;6.30;99.90
31967;DHT22;18496;52.042;6.812;2023-03-03T07:49:37;6.40;99.90
31967;DHT22;18496;52.042;6.812;2023-03-03T07:51:41;6.40;99.90
31967;DHT22;18496;52.042;6.812;2023-03-03T07:53:44;6.40;99.90
31967;DHT22;18496;52.042;6.812;2023-03-03T07:55:49;6.40;99.90
31967;DHT22;18496;52.042;6.812;2023-03-03T07:57:53;6.40;99.90
31967;DHT22;18496;52.042;6.812;2023-03-03T08:04:40;6.50;99.90
31967;DHT22;18496;52.042;6.812;2023-03-03T08:06:51;6.50;99.90
31967;DHT22;18496;52.042;6.812;2023-03-03T08:08:56;6.40;99.90
31967;DHT22;18496;52.042;6.812;2023-03-03T08:11:02;6.40;99.90
31967;DHT22;18496;52.042;6.812;2023-03-03T08:13:26;6.50;99.90
31967;DHT22;18496;52.042;6.812;2023-03-03T08:15:30;6.50;99.90
31967;DHT22;18496;52.042;6.812;2023-03-03T08:17:38;6.50;99.90
31967;DHT22;18496;52.042;6.812;2023-03-03T08:19:42;6.50;99.90
31967;DHT22;18496;52.042;6.812;2023-03-03T08:21:46;6.50;99.90
31967;DHT22;18496;52.042;6.812;2023-03-03T08:23:50;6.50;99.90
31967;DHT22;18496;52.042;6.812;2023-03-03T08:25:55;6.60;99.90
31967;DHT22;18496;52.042;6.812;2023-03-03T08:27:59;6.60;99.90
31967;DHT22;18496;52.042;6.812;2023-03-03T08:30:02;6.60;99.90
31967;DHT22;18496;52.042;6.812;2023-03-03T08:32:06;6.60;99.90
31967;DHT22;18496;52.042;6.812;2023-03-03T08:34:09;6.60;99.90
31967;DHT22;18496;52.042;6.812;2023-03-03T08:36:13;6.60;99.90
31967;DHT22;18496;52.042;6.812;2023-03-03T08:38:17;6.50;99.90
31967;DHT22;18496;52.042;6.812;2023-03-03T08:40:21;6.60;99.90
31967;DHT22;18496;52.042;6.812;2023-03-03T08:42:25;6.60;99.90
31967;DHT22;18496;52.042;6.812;2023-03-03T08:44:28;6.60;99.90
31967;DHT22;18496;52.042;6.812;2023-03-03T08:46:32;6.70;99.90
31967;DHT22;18496;52.042;6.812;2023-03-03T08:48:51;6.70;99.90
31967;DHT22;18496;52.042;6.812;2023-03-03T08:51:10;6.70;99.90
31967;DHT22;18496;52.042;6.812;2023-03-03T08:53:13;6.70;99.90
31967;DHT22;18496;52.042;6.812;2023-03-03T08:55:17;6.70;99.90
31967;DHT22;18496;52.042;6.812;2023-03-03T08:57:21;6.60;99.90
31967;DHT22;18496;52.042;6.812;2023-03-03T08:59:24;6.60;99.90
31967;DHT22;18496;52.042;6.812;2023-03-03T09:01:28;6.60;99.90
31967;DHT22;18496;52.042;6.812;2023-03-03T09:03:32;6.60;99.90
31967;DHT22;18496;52.042;6.812;2023-03-03T09:05:36;6.60;99.90
31967;DHT22;18496;52.042;6.812;2023-03-03T09:07:40;6.70;99.90
31967;DHT22;18496;52.042;6.812;2023-03-03T09:09:44;6.70;99.90
31967;DHT22;18496;52.042;6.812;2023-03-03T09:11:47;6.70;99.90
31967;DHT22;18496;52.042;6.812;2023-03-03T09:13:59;6.70;99.90
31967;DHT22;18496;52.042;6.812;2023-03-03T09:16:12;6.70;99.90
31967;DHT22;18496;52.042;6.812;2023-03-03T09:18:17;6.70;99.90
31967;DHT22;18496;52.042;6.812;2023-03-03T09:22:35;6.70;99.90
31967;DHT22;18496;52.042;6.812;2023-03-03T09:24:40;6.70;99.90
31967;DHT22;18496;52.042;6.812;2023-03-03T09:26:45;6.70;99.90
31967;DHT22;18496;52.042;6.812;2023-03-03T09:28:49;6.70;99.90
31967;DHT22;18496;52.042;6.812;2023-03-03T09:30:53;6.70;99.90
31967;DHT22;18496;52.042;6.812;2023-03-03T09:32:57;6.70;99.90
31967;DHT22;18496;52.042;6.812;2023-03-03T09:37:25;6.70;99.90
31967;DHT22;18496;52.042;6.812;2023-03-03T09:39:29;6.60;99.90
31967;DHT22;18496;52.042;6.812;2023-03-03T09:54:59;6.70;99.90
31967;DHT22;18496;52.042;6.812;2023-03-03T09:57:13;6.60;99.90
31967;DHT22;18496;52.042;6.812;2023-03-03T09:59:24;6.60;99.90
31967;DHT22;18496;52.042;6.812;2023-03-03T10:08:24;6.70;99.90
31967;DHT22;18496;52.042;6.812;2023-03-03T10:10:43;6.70;99.90
31967;DHT22;18496;52.042;6.812;2023-03-03T10:26:16;6.80;99.90
31967;DHT22;18496;52.042;6.812;2023-03-03T10:30:37;6.70;99.90
31967;DHT22;18496;52.042;6.812;2023-03-03T10:32:57;6.70;99.90
31967;DHT22;18496;52.042;6.812;2023-03-03T10:35:13;6.70;99.90
31967;DHT22;18496;52.042;6.812;2023-03-03T10:39:38;6.80;99.90
31967;DHT22;18496;52.042;6.812;2023-03-03T10:41:53;6.90;99.90
31967;DHT22;18496;52.042;6.812;2023-03-03T10:46:42;6.90;99.90
31967;DHT22;18496;52.042;6.812;2023-03-03T10:55:31;7.10;99.90
31967;DHT22;18496;52.042;6.812;2023-03-03T10:57:38;7.10;99.90
31967;DHT22;18496;52.042;6.812;2023-03-03T11:08:45;7.40;99.90
31967;DHT22;18496;52.042;6.812;2023-03-03T11:19:33;7.20;99.90
31967;DHT22;18496;52.042;6.812;2023-03-03T11:23:45;7.20;99.90
31967;DHT22;18496;52.042;6.812;2023-03-03T11:28:13;7.30;99.90
31967;DHT22;18496;52.042;6.812;2023-03-03T11:30:40;7.30;99.90
31967;DHT22;18496;52.042;6.812;2023-03-03T11:33:05;7.40;99.90
31967;DHT22;18496;52.042;6.812;2023-03-03T11:37:25;7.50;99.90
31967;DHT22;18496;52.042;6.812;2023-03-03T11:39:29;7.50;99.90
31967;DHT22;18496;52.042;6.812;2023-03-03T11:43:41;7.60;99.90
31967;DHT22;18496;52.042;6.812;2023-03-03T11:45:50;7.70;99.90
31967;DHT22;18496;52.042;6.812;2023-03-03T11:47:58;7.80;99.90
31967;DHT22;18496;52.042;6.812;2023-03-03T11:50:04;7.90;99.90
31967;DHT22;18496;52.042;6.812;2023-03-03T11:54:27;8.00;99.90
31967;DHT22;18496;52.042;6.812;2023-03-03T11:56:43;8.10;99.90
31967;DHT22;18496;52.042;6.812;2023-03-03T11:58:59;8.10;99.90
31967;DHT22;18496;52.042;6.812;2023-03-03T12:12:42;8.60;99.90
31967;DHT22;18496;52.042;6.812;2023-03-03T12:14:55;8.70;99.90
31967;DHT22;18496;52.042;6.812;2023-03-03T12:17:03;8.80;99.90
31967;DHT22;18496;52.042;6.812;2023-03-03T12:19:24;8.80;99.90
31967;DHT22;18496;52.042;6.812;2023-03-03T12:21:38;8.90;99.90
31967;DHT22;18496;52.042;6.812;2023-03-03T12:23:56;8.90;99.90
31967;DHT22;18496;52.042;6.812;2023-03-03T12:26:07;9.00;99.90
31967;DHT22;18496;52.042;6.812;2023-03-03T12:28:19;9.10;99.90
31967;DHT22;18496;52.042;6.812;2023-03-03T12:34:43;9.30;99.90
31967;DHT22;18496;52.042;6.812;2023-03-03T12:39:01;9.40;99.90
31967;DHT22;18496;52.042;6.812;2023-03-03T12:41:07;9.50;99.90
31967;DHT22;18496;52.042;6.812;2023-03-03T12:45:35;9.70;99.90
31967;DHT22;18496;52.042;6.812;2023-03-03T12:47:45;9.70;99.90
31967;DHT22;18496;52.042;6.812;2023-03-03T12:50:00;9.80;99.90
31967;DHT22;18496;52.042;6.812;2023-03-03T12:56:14;10.00;99.90
31967;DHT22;18496;52.042;6.812;2023-03-03T13:00:47;10.20;99.90
31967;DHT22;18496;52.042;6.812;2023-03-03T13:02:56;10.30;99.90
31967;DHT22;18496;52.042;6.812;2023-03-03T13:07:08;10.40;99.90
31967;DHT22;18496;52.042;6.812;2023-03-03T13:10:17;10.40;99.90
31967;DHT22;18496;52.042;6.812;2023-03-03T13:11:54;10.50;99.90
31967;DHT22;18496;52.042;6.812;2023-03-03T13:14:10;10.50;99.90
31967;DHT22;18496;52.042;6.812;2023-03-03T13:16:24;10.40;99.90
31967;DHT22;18496;52.042;6.812;2023-03-03T13:23:01;10.60;99.90
31967;DHT22;18496;52.042;6.812;2023-03-03T13:25:13;10.60;99.90
31967;DHT22;18496;52.042;6.812;2023-03-03T13:27:19;10.70;99.90
31967;DHT22;18496;52.042;6.812;2023-03-03T13:29:28;10.70;99.90
31967;DHT22;18496;52.042;6.812;2023-03-03T13:31:34;10.70;99.90
31967;DHT22;18496;52.042;6.812;2023-03-03T13:33:39;10.80;99.90
31967;DHT22;18496;52.042;6.812;2023-03-03T13:36:08;11.00;99.90
31967;DHT22;18496;52.042;6.812;2023-03-03T13:38:13;11.10;99.90
31967;DHT22;18496;52.042;6.812;2023-03-03T13:40:21;11.00;99.90
31967;DHT22;18496;52.042;6.812;2023-03-03T13:42:29;11.10;99.90
31967;DHT22;18496;52.042;6.812;2023-03-03T13:51:07;11.30;99.90
31967;DHT22;18496;52.042;6.812;2023-03-03T13:53:16;11.40;99.60
31967;DHT22;18496;52.042;6.812;2023-03-03T13:56:26;11.40;99.20
31967;DHT22;18496;52.042;6.812;2023-03-03T13:58:05;11.40;99.80
31967;DHT22;18496;52.042;6.812;2023-03-03T14:04:58;11.50;99.00
31967;DHT22;18496;52.042;6.812;2023-03-03T14:07:10;11.60;97.80
31967;DHT22;18496;52.042;6.812;2023-03-03T14:11:45;11.60;98.00
31967;DHT22;18496;52.042;6.812;2023-03-03T14:13:56;11.60;97.80
31967;DHT22;18496;52.042;6.812;2023-03-03T14:16:06;11.50;97.60
31967;DHT22;18496;52.042;6.812;2023-03-03T14:20:27;11.30;97.60
31967;DHT22;18496;52.042;6.812;2023-03-03T14:22:43;11.20;97.50
31967;DHT22;18496;52.042;6.812;2023-03-03T14:25:04;11.10;97.80
31967;DHT22;18496;52.042;6.812;2023-03-03T14:27:14;11.10;98.10
31967;DHT22;18496;52.042;6.812;2023-03-03T14:31:39;11.00;98.40
31967;DHT22;18496;52.042;6.812;2023-03-03T14:34:02;11.10;98.00
31967;DHT22;18496;52.042;6.812;2023-03-03T14:36:12;11.10;98.20
31967;DHT22;18496;52.042;6.812;2023-03-03T14:38:17;11.00;98.50
31967;DHT22;18496;52.042;6.812;2023-03-03T14:40:21;11.00;98.00
31967;DHT22;18496;52.042;6.812;2023-03-03T14:42:52;11.10;98.00
31967;DHT22;18496;52.042;6.812;2023-03-03T14:44:56;11.10;98.10
31967;DHT22;18496;52.042;6.812;2023-03-03T14:49:13;11.10;98.10
31967;DHT22;18496;52.042;6.812;2023-03-03T14:51:22;11.10;98.20
31967;DHT22;18496;52.042;6.812;2023-03-03T14:55:35;11.20;98.10
31967;DHT22;18496;52.042;6.812;2023-03-03T14:57:40;11.30;97.80
31967;DHT22;18496;52.042;6.812;2023-03-03T15:00:39;11.30;97.60
31967;DHT22;18496;52.042;6.812;2023-03-03T15:04:23;11.20;97.40
31967;DHT22;18496;52.042;6.812;2023-03-03T15:06:35;11.30;97.20
31967;DHT22;18496;52.042;6.812;2023-03-03T15:08:39;11.30;96.90
31967;DHT22;18496;52.042;6.812;2023-03-03T15:10:43;11.30;96.90
31967;DHT22;18496;52.042;6.812;2023-03-03T15:12:47;11.20;96.80
31967;DHT22;18496;52.042;6.812;2023-03-03T15:14:52;11.10;96.30
31967;DHT22;18496;52.042;6.812;2023-03-03T15:16:56;11.10;96.00
31967;DHT22;18496;52.042;6.812;2023-03-03T15:21:30;11.10;95.60
31967;DHT22;18496;52.042;6.812;2023-03-03T15:26:05;10.90;96.10
31967;DHT22;18496;52.042;6.812;2023-03-03T15:28:21;10.90;96.10
31967;DHT22;18496;52.042;6.812;2023-03-03T15:30:32;10.90;96.40
31967;DHT22;18496;52.042;6.812;2023-03-03T15:32:46;10.90;96.10
31967;DHT22;18496;52.042;6.812;2023-03-03T15:35:13;10.90;96.50
31967;DHT22;18496;52.042;6.812;2023-03-03T15:44:11;10.60;97.30
31967;DHT22;18496;52.042;6.812;2023-03-03T15:48:26;10.60;97.30
31967;DHT22;18496;52.042;6.812;2023-03-03T15:52:44;10.50;97.60
31967;DHT22;18496;52.042;6.812;2023-03-03T15:55:12;10.50;97.40
31967;DHT22;18496;52.042;6.812;2023-03-03T15:57:24;10.50;97.60
31967;DHT22;18496;52.042;6.812;2023-03-03T16:01:41;10.60;96.40
31967;DHT22;18496;52.042;6.812;2023-03-03T16:03:53;10.60;96.20
31967;DHT22;18496;52.042;6.812;2023-03-03T16:06:00;10.70;96.20
31967;DHT22;18496;52.042;6.812;2023-03-03T16:08:13;10.70;95.50
31967;DHT22;18496;52.042;6.812;2023-03-03T16:10:23;10.60;95.40
31967;DHT22;18496;52.042;6.812;2023-03-03T16:12:39;10.60;95.50
31967;DHT22;18496;52.042;6.812;2023-03-03T16:17:03;10.50;95.00
31967;DHT22;18496;52.042;6.812;2023-03-03T16:25:58;10.30;95.80
31967;DHT22;18496;52.042;6.812;2023-03-03T16:30:24;10.40;96.00
31967;DHT22;18496;52.042;6.812;2023-03-03T16:34:35;10.40;95.70
31967;DHT22;18496;52.042;6.812;2023-03-03T16:37:17;10.40;95.70
31967;DHT22;18496;52.042;6.812;2023-03-03T16:39:33;10.40;96.50
31967;DHT22;18496;52.042;6.812;2023-03-03T16:46:37;10.40;95.80
31967;DHT22;18496;52.042;6.812;2023-03-03T16:48:32;10.30;95.50
31967;DHT22;18496;52.042;6.812;2023-03-03T16:52:47;10.30;95.70
31967;DHT22;18496;52.042;6.812;2023-03-03T16:54:54;10.30;95.70
31967;DHT22;18496;52.042;6.812;2023-03-03T17:01:20;10.40;95.80